Time;durP1;ratioP1;P1;durP2;ratioP2;P2;SDS_P1;SDS_P2;PMS_P1;PMS_P2;Temp;Humidity;BMP_temperature;BMP_pressure;BME280_temperature;BME280_humidity;BME280_pressure;Samples;Min_cycle;Max_cycle;Signal;HPM_P1;HPM_P2
2021/08/06 00:00:53;;;;;;;;;;;19.90;99.90;;;;;;6319067;28;20046;-67
2021/08/06 00:03:55;;;;;;;;;;;19.90;99.90;;;;;;6317046;28;19972;-67
2021/08/06 00:07:11;;;;;;;;;;;19.80;99.90;;;;;;6315867;28;20063;-67
2021/08/06 00:10:13;;;;;;;;;;;19.80;99.90;;;;;;6319099;28;19972;-67
2021/08/06 00:13:15;;;;;;;;;;;19.80;99.90;;;;;;6317140;28;20362;-67
2021/08/06 00:16:17;;;;;;;;;;;19.80;99.90;;;;;;6305964;28;19999;-67
2021/08/06 00:19:19;;;;;;;;;;;19.80;99.90;;;;;;6317520;28;19992;-67
2021/08/06 00:22:21;;;;;;;;;;;19.80;99.90;;;;;;6347506;28;19981;-67
2021/08/06 00:25:23;;;;;;;;;;;19.80;99.90;;;;;;6346478;28;19975;-67
2021/08/06 00:28:24;;;;;;;;;;;19.80;99.90;;;;;;6347042;28;19975;-67
2021/08/06 00:31:26;;;;;;;;;;;19.80;99.90;;;;;;6348859;28;19972;-67
2021/08/06 00:34:28;;;;;;;;;;;19.70;99.90;;;;;;6345500;28;20054;-67
2021/08/06 00:37:29;;;;;;;;;;;19.70;99.90;;;;;;6345807;28;20450;-66
2021/08/06 00:40:31;;;;;;;;;;;19.70;99.90;;;;;;6323392;28;19979;-66
2021/08/06 00:43:33;;;;;;;;;;;19.70;99.90;;;;;;6320076;28;19975;-67
2021/08/06 00:46:34;;;;;;;;;;;19.70;99.90;;;;;;6346067;28;20321;-67
2021/08/06 00:49:36;;;;;;;;;;;19.70;99.90;;;;;;6317779;28;19983;-67
2021/08/06 00:52:39;;;;;;;;;;;19.70;99.90;;;;;;6324498;28;19972;-67
2021/08/06 00:55:41;;;;;;;;;;;19.60;99.90;;;;;;6345250;28;20044;-67
2021/08/06 00:58:43;;;;;;;;;;;19.70;99.90;;;;;;6340501;28;19988;-67
2021/08/06 01:01:53;;;;;;;;;;;19.70;99.90;;;;;;6346908;28;20075;-67
2021/08/06 01:04:59;;;;;;;;;;;19.70;99.90;;;;;;6343929;28;20488;-66
2021/08/06 01:08:11;;;;;;;;;;;19.60;99.90;;;;;;6346360;28;19976;-67
2021/08/06 01:11:14;;;;;;;;;;;19.60;99.90;;;;;;6314537;28;20021;-67
2021/08/06 01:14:18;;;;;;;;;;;19.60;99.90;;;;;;6339378;28;19980;-67
2021/08/06 01:17:21;;;;;;;;;;;19.60;99.90;;;;;;6321926;28;19998;-67
2021/08/06 01:20:24;;;;;;;;;;;19.60;99.90;;;;;;6332067;28;20340;-67
2021/08/06 01:23:29;;;;;;;;;;;19.60;99.90;;;;;;6319700;28;20339;-66
2021/08/06 01:26:30;;;;;;;;;;;19.60;99.90;;;;;;6317883;28;19976;-67
2021/08/06 01:29:32;;;;;;;;;;;19.50;99.90;;;;;;6318947;28;20447;-67
2021/08/06 01:32:35;;;;;;;;;;;19.50;99.90;;;;;;6315978;28;20422;-67
2021/08/06 01:35:36;;;;;;;;;;;19.50;99.90;;;;;;6345263;28;19959;-67
2021/08/06 01:38:38;;;;;;;;;;;19.40;99.90;;;;;;6345026;28;19995;-67
2021/08/06 01:41:46;;;;;;;;;;;19.40;99.90;;;;;;6347369;28;19979;-66
2021/08/06 01:44:51;;;;;;;;;;;19.40;99.90;;;;;;6309504;28;19972;-67
2021/08/06 01:47:53;;;;;;;;;;;19.40;99.90;;;;;;6338184;28;20012;-67
2021/08/06 01:50:55;;;;;;;;;;;19.40;99.90;;;;;;6346482;28;20044;-67
2021/08/06 01:53:58;;;;;;;;;;;19.40;99.90;;;;;;6345152;28;19968;-67
2021/08/06 01:57:00;;;;;;;;;;;19.40;99.90;;;;;;6314584;28;19983;-67
2021/08/06 02:00:02;;;;;;;;;;;19.40;99.90;;;;;;6345183;28;20023;-67
2021/08/06 02:03:05;;;;;;;;;;;19.40;99.90;;;;;;6318641;28;20403;-67
2021/08/06 02:06:08;;;;;;;;;;;19.50;99.90;;;;;;6343879;28;19976;-66
2021/08/06 02:09:16;;;;;;;;;;;19.50;99.90;;;;;;6344721;28;20404;-66
2021/08/06 02:12:18;;;;;;;;;;;19.50;99.90;;;;;;6344657;28;19980;-66
2021/08/06 02:15:20;;;;;;;;;;;19.40;99.90;;;;;;6336988;28;19995;-66
2021/08/06 02:18:22;;;;;;;;;;;19.40;99.90;;;;;;6334170;28;20463;-67
2021/08/06 02:21:25;;;;;;;;;;;19.40;99.90;;;;;;6314774;28;20082;-67
2021/08/06 02:24:30;;;;;;;;;;;19.40;99.90;;;;;;6307168;28;19979;-66
2021/08/06 02:27:33;;;;;;;;;;;19.40;99.90;;;;;;6338286;28;20009;-67
2021/08/06 02:30:35;;;;;;;;;;;19.40;99.90;;;;;;6320690;28;20374;-67
2021/08/06 02:33:37;;;;;;;;;;;19.30;99.90;;;;;;6343752;28;20084;-67
2021/08/06 02:36:38;;;;;;;;;;;19.30;99.90;;;;;;6314259;28;19984;-67
2021/08/06 02:39:40;;;;;;;;;;;19.30;99.90;;;;;;6342242;28;19988;-67
2021/08/06 02:42:42;;;;;;;;;;;19.40;99.90;;;;;;6316350;28;20462;-67
2021/08/06 02:45:47;;;;;;;;;;;19.30;99.90;;;;;;6343992;28;19984;-67
2021/08/06 02:48:49;;;;;;;;;;;19.30;99.90;;;;;;6337951;28;20342;-67
2021/08/06 02:51:50;;;;;;;;;;;19.30;99.90;;;;;;6344962;28;19983;-67
2021/08/06 02:54:52;;;;;;;;;;;19.30;99.90;;;;;;6306814;28;20461;-67
2021/08/06 02:57:54;;;;;;;;;;;19.30;99.90;;;;;;6339771;28;20335;-67
2021/08/06 03:00:55;;;;;;;;;;;19.30;99.90;;;;;;6321941;28;19983;-66
2021/08/06 03:03:57;;;;;;;;;;;19.30;99.90;;;;;;6342143;28;19972;-67
2021/08/06 03:07:00;;;;;;;;;;;19.30;99.90;;;;;;6343173;28;19975;-67
2021/08/06 03:10:03;;;;;;;;;;;19.30;99.90;;;;;;6343978;28;19987;-67
2021/08/06 03:13:05;;;;;;;;;;;19.20;99.90;;;;;;6343539;28;19980;-67
2021/08/06 03:16:06;;;;;;;;;;;19.20;99.90;;;;;;6342478;28;20461;-67
2021/08/06 03:19:08;;;;;;;;;;;19.20;99.90;;;;;;6335247;28;19991;-67
2021/08/06 03:22:10;;;;;;;;;;;19.20;99.90;;;;;;6341739;28;19976;-66
2021/08/06 03:25:11;;;;;;;;;;;19.20;99.90;;;;;;6324545;28;19983;-66
2021/08/06 03:28:13;;;;;;;;;;;19.20;99.90;;;;;;6342927;28;19976;-66
2021/08/06 03:31:15;;;;;;;;;;;19.20;99.90;;;;;;6345083;28;20402;-66
2021/08/06 03:34:16;;;;;;;;;;;19.10;99.90;;;;;;6341180;28;19983;-66
2021/08/06 03:37:18;;;;;;;;;;;19.10;99.90;;;;;;6342866;28;19998;-66
2021/08/06 03:40:20;;;;;;;;;;;19.00;99.90;;;;;;6314202;28;19991;-66
2021/08/06 03:43:22;;;;;;;;;;;19.00;99.90;;;;;;6342617;28;19990;-66
2021/08/06 03:46:23;;;;;;;;;;;19.00;99.90;;;;;;6337096;28;20022;-66
2021/08/06 03:49:25;;;;;;;;;;;18.90;99.90;;;;;;6342854;28;20438;-66
2021/08/06 03:52:27;;;;;;;;;;;18.90;99.90;;;;;;6348144;28;19983;-66
2021/08/06 03:55:28;;;;;;;;;;;18.90;99.90;;;;;;6318449;28;19991;-66
2021/08/06 03:58:30;;;;;;;;;;;18.80;99.90;;;;;;6315055;28;19953;-66
2021/08/06 04:01:31;;;;;;;;;;;18.80;99.90;;;;;;6318986;28;19984;-66
2021/08/06 04:04:33;;;;;;;;;;;18.70;99.90;;;;;;6328033;28;20375;-66
2021/08/06 04:07:35;;;;;;;;;;;18.70;99.90;;;;;;6344581;28;19983;-66
2021/08/06 04:10:36;;;;;;;;;;;18.70;99.90;;;;;;6345323;28;20085;-66
2021/08/06 04:13:38;;;;;;;;;;;18.70;99.90;;;;;;6347615;28;19971;-66
2021/08/06 04:16:40;;;;;;;;;;;18.70;99.90;;;;;;6347972;28;19987;-66
2021/08/06 04:19:41;;;;;;;;;;;18.70;99.90;;;;;;6315356;28;19992;-66
2021/08/06 04:22:43;;;;;;;;;;;18.70;99.90;;;;;;6343894;28;19976;-66
2021/08/06 04:25:45;;;;;;;;;;;18.70;99.90;;;;;;6346871;28;19975;-66
2021/08/06 04:28:46;;;;;;;;;;;18.70;99.90;;;;;;6347344;28;19979;-66
2021/08/06 04:31:48;;;;;;;;;;;18.70;99.90;;;;;;6348857;28;19980;-66
2021/08/06 04:34:49;;;;;;;;;;;18.60;99.90;;;;;;6344695;28;20408;-66
2021/08/06 04:37:52;;;;;;;;;;;18.60;99.90;;;;;;6317477;28;19979;-66
2021/08/06 04:40:54;;;;;;;;;;;18.60;99.90;;;;;;6348868;28;19982;-66
2021/08/06 04:43:55;;;;;;;;;;;18.60;99.90;;;;;;6346384;28;19976;-66
2021/08/06 04:46:57;;;;;;;;;;;18.60;99.90;;;;;;6346930;28;20026;-66
2021/08/06 04:49:58;;;;;;;;;;;18.60;99.90;;;;;;6328187;28;19972;-66
2021/08/06 04:53:00;;;;;;;;;;;18.60;99.90;;;;;;6328374;28;19972;-66
2021/08/06 04:56:02;;;;;;;;;;;18.60;99.90;;;;;;6346333;28;19979;-66
2021/08/06 04:59:04;;;;;;;;;;;18.60;99.90;;;;;;6346412;28;20396;-67
2021/08/06 05:02:05;;;;;;;;;;;18.60;99.90;;;;;;6315432;28;19986;-66
2021/08/06 05:05:07;;;;;;;;;;;18.50;99.90;;;;;;6320239;28;19994;-66
2021/08/06 05:08:09;;;;;;;;;;;18.60;99.90;;;;;;6317722;28;20392;-66
2021/08/06 05:11:10;;;;;;;;;;;18.60;99.90;;;;;;6329437;28;19976;-66
2021/08/06 05:14:12;;;;;;;;;;;18.50;99.90;;;;;;6344798;28;20028;-66
2021/08/06 05:17:14;;;;;;;;;;;18.50;99.90;;;;;;6344733;28;20494;-67
2021/08/06 05:20:16;;;;;;;;;;;18.50;99.90;;;;;;6334881;28;19995;-66
2021/08/06 05:23:18;;;;;;;;;;;18.50;99.90;;;;;;6343979;28;19976;-66
2021/08/06 05:26:19;;;;;;;;;;;18.50;99.90;;;;;;6314920;28;19982;-66
2021/08/06 05:29:21;;;;;;;;;;;18.50;99.90;;;;;;6309571;28;19978;-66
2021/08/06 05:32:23;;;;;;;;;;;18.50;99.90;;;;;;6319103;28;19987;-66
2021/08/06 05:35:25;;;;;;;;;;;18.50;99.90;;;;;;6345562;28;19996;-66
2021/08/06 05:38:27;;;;;;;;;;;18.50;99.90;;;;;;6318086;28;20089;-66
2021/08/06 05:41:28;;;;;;;;;;;18.50;99.90;;;;;;6346783;28;19972;-66
2021/08/06 05:44:30;;;;;;;;;;;18.50;99.90;;;;;;6318410;28;19983;-66
2021/08/06 05:47:45;;;;;;;;;;;18.40;99.90;;;;;;6345111;28;19983;-66
2021/08/06 05:50:47;;;;;;;;;;;18.40;99.90;;;;;;6345111;28;19980;-66
2021/08/06 05:53:49;;;;;;;;;;;18.40;99.90;;;;;;6320251;28;19976;-66
2021/08/06 05:56:50;;;;;;;;;;;18.40;99.90;;;;;;6314776;28;20431;-66
2021/08/06 05:59:52;;;;;;;;;;;18.40;99.90;;;;;;6345197;28;20320;-66
2021/08/06 06:02:54;;;;;;;;;;;18.50;99.90;;;;;;6344277;28;19975;-66
2021/08/06 06:05:55;;;;;;;;;;;18.50;99.90;;;;;;6344609;28;19972;-66
2021/08/06 06:08:57;;;;;;;;;;;18.50;99.90;;;;;;6345104;28;20012;-66
2021/08/06 06:11:58;;;;;;;;;;;18.50;99.90;;;;;;6345797;28;20368;-66
2021/08/06 06:15:00;;;;;;;;;;;18.50;99.90;;;;;;6343025;28;19979;-66
2021/08/06 06:18:02;;;;;;;;;;;18.50;99.90;;;;;;6342013;28;19980;-66
2021/08/06 06:21:04;;;;;;;;;;;18.50;99.90;;;;;;6331503;28;20435;-67
2021/08/06 06:24:05;;;;;;;;;;;18.50;99.90;;;;;;6336548;28;19980;-66
2021/08/06 06:27:07;;;;;;;;;;;18.50;99.90;;;;;;6344294;28;20372;-66
2021/08/06 06:30:09;;;;;;;;;;;18.50;99.90;;;;;;6345087;28;20435;-67
2021/08/06 06:33:10;;;;;;;;;;;18.60;99.90;;;;;;6344508;28;19979;-67
2021/08/06 06:36:12;;;;;;;;;;;18.70;99.90;;;;;;6343782;28;19976;-66
2021/08/06 06:39:14;;;;;;;;;;;18.80;99.90;;;;;;6344161;28;20000;-66
2021/08/06 06:42:15;;;;;;;;;;;18.80;99.90;;;;;;6315797;28;19990;-66
2021/08/06 06:45:18;;;;;;;;;;;18.80;99.90;;;;;;6343371;28;19983;-67
2021/08/06 06:48:24;;;;;;;;;;;18.70;99.90;;;;;;6344170;28;19979;-66
2021/08/06 06:51:26;;;;;;;;;;;18.70;99.90;;;;;;6318205;28;19960;-66
2021/08/06 06:54:27;;;;;;;;;;;18.70;99.90;;;;;;6324404;28;20020;-66
2021/08/06 06:57:29;;;;;;;;;;;18.70;99.90;;;;;;6325196;28;20467;-66
2021/08/06 07:00:31;;;;;;;;;;;18.70;99.90;;;;;;6315612;28;20451;-67
2021/08/06 07:03:33;;;;;;;;;;;18.60;99.90;;;;;;6309959;28;19995;-66
2021/08/06 07:06:35;;;;;;;;;;;18.60;99.90;;;;;;6343099;28;19986;-66
2021/08/06 07:09:37;;;;;;;;;;;18.60;99.90;;;;;;6312355;28;20448;-66
2021/08/06 07:12:39;;;;;;;;;;;18.60;99.90;;;;;;6314168;28;19986;-66
2021/08/06 07:15:41;;;;;;;;;;;18.60;99.90;;;;;;6342860;28;20020;-66
2021/08/06 07:18:43;;;;;;;;;;;18.60;99.90;;;;;;6330808;28;20032;-66
2021/08/06 07:21:48;;;;;;;;;;;18.60;99.90;;;;;;6333544;28;20335;-66
2021/08/06 07:24:50;;;;;;;;;;;18.60;99.90;;;;;;6315943;28;19991;-66
2021/08/06 07:27:52;;;;;;;;;;;18.70;99.90;;;;;;6318296;28;19979;-66
2021/08/06 07:30:54;;;;;;;;;;;18.70;99.90;;;;;;6344294;28;19983;-67
2021/08/06 07:33:55;;;;;;;;;;;18.60;99.90;;;;;;6323382;28;19983;-67
2021/08/06 07:36:57;;;;;;;;;;;18.70;99.90;;;;;;6344159;28;20014;-66
2021/08/06 07:39:59;;;;;;;;;;;18.70;99.90;;;;;;6342540;28;20422;-66
2021/08/06 07:43:01;;;;;;;;;;;18.70;99.90;;;;;;6342661;28;19985;-66
2021/08/06 07:46:03;;;;;;;;;;;18.80;99.90;;;;;;6342156;28;20446;-66
2021/08/06 07:49:04;;;;;;;;;;;18.80;99.90;;;;;;6342749;28;19987;-66
2021/08/06 07:52:06;;;;;;;;;;;18.90;99.90;;;;;;6312302;28;19980;-66
2021/08/06 07:55:13;;;;;;;;;;;19.00;99.90;;;;;;6324776;28;19983;-66
2021/08/06 07:58:14;;;;;;;;;;;19.00;99.90;;;;;;6335971;28;20430;-67
2021/08/06 08:01:16;;;;;;;;;;;19.20;99.90;;;;;;6344055;28;20430;-66
2021/08/06 08:04:18;;;;;;;;;;;19.30;99.90;;;;;;6336576;28;19976;-66
2021/08/06 08:07:19;;;;;;;;;;;19.40;99.90;;;;;;6342577;28;20129;-66
2021/08/06 08:10:21;;;;;;;;;;;19.40;99.90;;;;;;6344230;28;19972;-66
2021/08/06 08:13:39;;;;;;;;;;;19.50;99.90;;;;;;6341360;28;19972;-66
2021/08/06 08:16:41;;;;;;;;;;;19.50;99.90;;;;;;6343193;28;19976;-66
2021/08/06 08:19:44;;;;;;;;;;;19.50;99.90;;;;;;6310465;28;19991;-66
2021/08/06 08:22:46;;;;;;;;;;;19.50;99.90;;;;;;6338345;28;19930;-66
2021/08/06 08:25:49;;;;;;;;;;;19.50;99.90;;;;;;6312247;28;19976;-66
2021/08/06 08:28:51;;;;;;;;;;;19.50;99.90;;;;;;6341997;28;20404;-66
2021/08/06 08:31:53;;;;;;;;;;;19.60;99.90;;;;;;6343690;28;19988;-67
2021/08/06 08:34:55;;;;;;;;;;;19.70;99.90;;;;;;6338399;28;19976;-66
2021/08/06 08:37:56;;;;;;;;;;;19.70;99.90;;;;;;6344695;28;19975;-66
2021/08/06 08:40:58;;;;;;;;;;;19.70;99.90;;;;;;6316727;28;20050;-66
2021/08/06 08:44:00;;;;;;;;;;;19.60;99.90;;;;;;6327293;28;19976;-66
2021/08/06 08:47:02;;;;;;;;;;;19.50;99.90;;;;;;6320340;28;19987;-66
2021/08/06 08:50:05;;;;;;;;;;;19.50;99.90;;;;;;6343322;28;20150;-66
2021/08/06 08:53:07;;;;;;;;;;;19.50;99.90;;;;;;6346585;28;19980;-66
2021/08/06 08:56:09;;;;;;;;;;;19.60;99.90;;;;;;6346847;28;19976;-66
2021/08/06 08:59:11;;;;;;;;;;;19.80;99.90;;;;;;6344764;28;19991;-66
2021/08/06 09:02:13;;;;;;;;;;;20.00;99.90;;;;;;6314417;28;20445;-66
2021/08/06 09:05:20;;;;;;;;;;;20.10;99.90;;;;;;6346100;28;20355;-66
2021/08/06 09:08:21;;;;;;;;;;;20.10;99.90;;;;;;6346719;28;19984;-66
2021/08/06 09:11:30;;;;;;;;;;;20.20;99.90;;;;;;6347245;28;20315;-67
2021/08/06 09:14:32;;;;;;;;;;;20.10;99.90;;;;;;6340340;28;19983;-66
2021/08/06 09:17:36;;;;;;;;;;;20.10;99.90;;;;;;6345756;28;19976;-66
2021/08/06 09:20:38;;;;;;;;;;;20.10;99.90;;;;;;6333036;28;20018;-66
2021/08/06 09:23:43;;;;;;;;;;;20.10;99.90;;;;;;6344689;28;20003;-66
2021/08/06 09:26:45;;;;;;;;;;;20.10;99.90;;;;;;6347081;28;19980;-67
2021/08/06 09:29:47;;;;;;;;;;;20.10;99.90;;;;;;6345609;28;20373;-66
2021/08/06 09:32:53;;;;;;;;;;;20.10;99.90;;;;;;6344972;28;19980;-67
2021/08/06 09:36:08;;;;;;;;;;;20.10;99.90;;;;;;6345286;28;20428;-66
2021/08/06 09:39:10;;;;;;;;;;;20.00;99.90;;;;;;6345688;28;19992;-66
2021/08/06 09:42:29;;;;;;;;;;;19.90;99.90;;;;;;6345227;28;19980;-66
2021/08/06 09:45:35;;;;;;;;;;;19.80;99.90;;;;;;6345408;28;19954;-66
2021/08/06 09:48:37;;;;;;;;;;;19.70;99.90;;;;;;6321974;28;19980;-66
2021/08/06 09:51:40;;;;;;;;;;;19.70;99.90;;;;;;6319886;28;20316;-66
2021/08/06 09:54:47;;;;;;;;;;;19.80;99.90;;;;;;6313900;28;19980;-66
2021/08/06 09:57:50;;;;;;;;;;;19.90;99.90;;;;;;6345073;28;19983;-67
2021/08/06 10:00:53;;;;;;;;;;;20.00;99.90;;;;;;6346314;28;20023;-66
2021/08/06 10:04:11;;;;;;;;;;;20.20;99.90;;;;;;6342418;28;20381;-66
2021/08/06 10:07:13;;;;;;;;;;;20.30;99.90;;;;;;6344985;28;19983;-67
2021/08/06 10:10:16;;;;;;;;;;;20.30;99.90;;;;;;6339160;28;19976;-66
2021/08/06 10:13:18;;;;;;;;;;;20.20;99.90;;;;;;6344636;28;19976;-66
2021/08/06 10:16:19;;;;;;;;;;;20.20;99.90;;;;;;6345122;28;19975;-66
2021/08/06 10:19:21;;;;;;;;;;;20.20;99.90;;;;;;6333236;28;19992;-66
2021/08/06 10:22:23;;;;;;;;;;;20.20;99.90;;;;;;6339554;28;20032;-66
2021/08/06 10:25:28;;;;;;;;;;;20.20;99.90;;;;;;6317929;28;19979;-66
2021/08/06 10:28:31;;;;;;;;;;;20.20;99.90;;;;;;6319578;28;19976;-67
2021/08/06 10:31:32;;;;;;;;;;;20.20;99.90;;;;;;6345709;28;19998;-66
2021/08/06 10:34:34;;;;;;;;;;;20.20;99.90;;;;;;6341791;28;20120;-66
2021/08/06 10:37:45;;;;;;;;;;;20.30;99.90;;;;;;6344181;28;19987;-66
2021/08/06 10:40:46;;;;;;;;;;;20.30;99.90;;;;;;6320927;28;19992;-66
2021/08/06 10:44:06;;;;;;;;;;;20.30;99.90;;;;;;6309722;28;19976;-66
2021/08/06 10:47:08;;;;;;;;;;;20.30;99.90;;;;;;6344185;28;19996;-66
2021/08/06 10:50:17;;;;;;;;;;;20.30;99.90;;;;;;6313404;28;19999;-66
2021/08/06 10:53:19;;;;;;;;;;;20.40;99.90;;;;;;6344322;28;19973;-66
2021/08/06 10:56:29;;;;;;;;;;;20.50;99.90;;;;;;6344643;28;20054;-67
2021/08/06 10:59:38;;;;;;;;;;;20.50;99.90;;;;;;6342625;28;20438;-67
2021/08/06 11:02:41;;;;;;;;;;;20.50;99.90;;;;;;6338925;28;20344;-67
2021/08/06 11:05:44;;;;;;;;;;;20.60;99.90;;;;;;6343420;28;20272;-66
2021/08/06 11:08:47;;;;;;;;;;;20.70;99.90;;;;;;6343287;28;19979;-67
2021/08/06 11:11:55;;;;;;;;;;;20.70;99.90;;;;;;6344706;28;20431;-66
2021/08/06 11:14:59;;;;;;;;;;;20.80;99.90;;;;;;6310491;28;19976;-66
2021/08/06 11:18:01;;;;;;;;;;;20.80;99.90;;;;;;6340894;28;19972;-66
2021/08/06 11:21:02;;;;;;;;;;;20.80;99.90;;;;;;6334487;28;19991;-66
2021/08/06 11:24:04;;;;;;;;;;;20.70;99.90;;;;;;6341305;28;20426;-67
2021/08/06 11:27:06;;;;;;;;;;;20.50;99.90;;;;;;6344549;28;19975;-66
2021/08/06 11:30:10;;;;;;;;;;;20.40;99.90;;;;;;6344047;28;20027;-66
2021/08/06 11:33:18;;;;;;;;;;;20.20;99.90;;;;;;6342747;28;20315;-67
2021/08/06 11:36:20;;;;;;;;;;;20.10;99.90;;;;;;6343594;28;19984;-66
2021/08/06 11:39:21;;;;;;;;;;;20.10;99.90;;;;;;6343092;28;19980;-66
2021/08/06 11:42:24;;;;;;;;;;;20.10;99.90;;;;;;6341981;28;20016;-66
2021/08/06 11:45:28;;;;;;;;;;;20.00;99.90;;;;;;6341859;28;19986;-66
2021/08/06 11:48:43;;;;;;;;;;;19.80;99.90;;;;;;6343025;28;20276;-66
2021/08/06 11:51:53;;;;;;;;;;;19.60;99.90;;;;;;6309369;28;19973;-66
2021/08/06 11:54:54;;;;;;;;;;;19.40;99.90;;;;;;6341508;28;19998;-66
2021/08/06 11:57:57;;;;;;;;;;;19.20;99.90;;;;;;6311895;28;19980;-66
2021/08/06 12:00:59;;;;;;;;;;;19.10;99.90;;;;;;6344926;28;19988;-66
2021/08/06 12:04:01;;;;;;;;;;;19.10;99.90;;;;;;6321489;28;20572;-66
2021/08/06 12:07:03;;;;;;;;;;;19.00;99.90;;;;;;6343896;28;19986;-66
2021/08/06 12:10:05;;;;;;;;;;;18.80;99.90;;;;;;6343240;28;19980;-66
2021/08/06 12:13:11;;;;;;;;;;;18.80;99.90;;;;;;6346690;28;20450;-66
2021/08/06 12:16:23;;;;;;;;;;;18.90;99.90;;;;;;6326810;28;19980;-66
2021/08/06 12:19:25;;;;;;;;;;;19.10;99.90;;;;;;6334898;28;20007;-66
2021/08/06 12:22:30;;;;;;;;;;;19.30;99.90;;;;;;6345834;28;19995;-67
2021/08/06 12:25:32;;;;;;;;;;;19.50;99.90;;;;;;6347691;28;19976;-65
2021/08/06 12:28:35;;;;;;;;;;;19.60;99.90;;;;;;6343792;28;20094;-67
2021/08/06 12:31:52;;;;;;;;;;;19.80;99.90;;;;;;6343333;28;20466;-66
2021/08/06 12:34:56;;;;;;;;;;;19.90;99.90;;;;;;6344242;28;19972;-66
2021/08/06 12:37:58;;;;;;;;;;;20.00;99.90;;;;;;6346876;28;20362;-66
2021/08/06 12:41:00;;;;;;;;;;;20.00;99.90;;;;;;6346745;28;20014;-66
2021/08/06 12:44:11;;;;;;;;;;;20.00;99.90;;;;;;6340165;28;20453;-66
2021/08/06 12:47:16;;;;;;;;;;;19.90;99.90;;;;;;6346202;28;20380;-66
2021/08/06 12:50:21;;;;;;;;;;;19.90;99.90;;;;;;6323338;28;20354;-66
2021/08/06 12:53:31;;;;;;;;;;;19.80;99.90;;;;;;6345652;28;19983;-66
2021/08/06 12:56:53;;;;;;;;;;;19.70;99.90;;;;;;6348193;28;20416;-66
2021/08/06 13:00:10;;;;;;;;;;;19.70;99.90;;;;;;6340072;28;19980;-66
2021/08/06 13:03:13;;;;;;;;;;;19.60;99.90;;;;;;6316435;28;19976;-66
2021/08/06 13:06:15;;;;;;;;;;;19.60;99.90;;;;;;6316180;28;20428;-66
2021/08/06 13:09:37;;;;;;;;;;;19.60;99.90;;;;;;6346546;28;19991;-66
2021/08/06 13:12:46;;;;;;;;;;;19.60;99.90;;;;;;6339045;28;19972;-66
2021/08/06 13:15:47;;;;;;;;;;;19.60;99.90;;;;;;6345687;28;20458;-67
2021/08/06 13:18:50;;;;;;;;;;;19.60;99.90;;;;;;6320997;28;20337;-66
2021/08/06 13:22:02;;;;;;;;;;;19.60;99.90;;;;;;6336721;28;20322;-66
2021/08/06 13:25:04;;;;;;;;;;;19.60;99.90;;;;;;6336847;28;19985;-66
2021/08/06 13:28:07;;;;;;;;;;;19.70;99.90;;;;;;6345974;28;20033;-66
2021/08/06 13:31:09;;;;;;;;;;;19.80;99.90;;;;;;6347035;28;19999;-66
2021/08/06 13:34:11;;;;;;;;;;;19.90;99.90;;;;;;6343292;28;20091;-66
2021/08/06 13:37:12;;;;;;;;;;;20.10;99.90;;;;;;6345408;28;19980;-66
2021/08/06 13:40:14;;;;;;;;;;;20.30;99.90;;;;;;6346892;28;19994;-66
2021/08/06 13:43:16;;;;;;;;;;;20.40;99.90;;;;;;6313982;28;19998;-66
2021/08/06 13:46:18;;;;;;;;;;;20.60;99.90;;;;;;6316057;28;19987;-66
2021/08/06 13:49:20;;;;;;;;;;;20.70;99.90;;;;;;6344889;28;20325;-66
2021/08/06 13:52:21;;;;;;;;;;;20.80;99.90;;;;;;6313165;28;19983;-66
2021/08/06 13:55:23;;;;;;;;;;;20.80;99.90;;;;;;6320329;28;19976;-66
2021/08/06 13:58:25;;;;;;;;;;;20.90;99.90;;;;;;6345033;28;20427;-66
2021/08/06 14:01:27;;;;;;;;;;;21.00;99.90;;;;;;6345795;28;20014;-66
2021/08/06 14:04:28;;;;;;;;;;;21.10;99.90;;;;;;6316085;28;20061;-66
2021/08/06 14:07:32;;;;;;;;;;;21.10;99.90;;;;;;6345026;28;19976;-69
2021/08/06 14:10:33;;;;;;;;;;;21.20;99.90;;;;;;6345814;28;19995;-68
2021/08/06 14:13:36;;;;;;;;;;;21.30;99.90;;;;;;6343011;28;19976;-69
2021/08/06 14:16:38;;;;;;;;;;;21.30;99.90;;;;;;6345914;28;19980;-69
2021/08/06 14:19:39;;;;;;;;;;;21.20;99.90;;;;;;6334505;28;20648;-68
2021/08/06 14:22:41;;;;;;;;;;;21.20;99.90;;;;;;6343883;28;20431;-69
2021/08/06 14:25:44;;;;;;;;;;;21.20;99.90;;;;;;6343376;28;21662;-69
2021/08/06 14:28:47;;;;;;;;;;;21.30;99.90;;;;;;6322911;28;19983;-69
2021/08/06 14:31:49;;;;;;;;;;;21.20;99.90;;;;;;6345278;28;19976;-69
2021/08/06 14:34:50;;;;;;;;;;;21.10;99.90;;;;;;6342228;28;19979;-69
2021/08/06 14:37:52;;;;;;;;;;;21.10;99.90;;;;;;6343499;28;19979;-69
2021/08/06 14:40:54;;;;;;;;;;;21.20;99.90;;;;;;6345116;28;20443;-68
2021/08/06 14:43:56;;;;;;;;;;;21.20;99.90;;;;;;6342770;28;19976;-69
2021/08/06 14:46:57;;;;;;;;;;;21.20;99.90;;;;;;6342604;28;19971;-69
2021/08/06 14:49:59;;;;;;;;;;;21.20;99.90;;;;;;6343671;28;20392;-69
2021/08/06 14:53:01;;;;;;;;;;;21.20;99.90;;;;;;6336415;28;19979;-68
2021/08/06 14:56:02;;;;;;;;;;;21.30;99.90;;;;;;6339694;28;19990;-69
2021/08/06 14:59:04;;;;;;;;;;;21.30;99.90;;;;;;6343254;28;19972;-69
2021/08/06 15:02:06;;;;;;;;;;;21.40;99.90;;;;;;6345023;28;19995;-69
2021/08/06 15:05:08;;;;;;;;;;;21.40;99.90;;;;;;6343092;28;19982;-68
2021/08/06 15:08:10;;;;;;;;;;;21.40;99.90;;;;;;6318144;28;20020;-69
2021/08/06 15:11:11;;;;;;;;;;;21.40;99.90;;;;;;6344993;28;20038;-68
2021/08/06 15:14:13;;;;;;;;;;;21.40;99.90;;;;;;6315176;28;20462;-69
2021/08/06 15:17:15;;;;;;;;;;;21.30;99.90;;;;;;6324176;28;20060;-69
2021/08/06 15:20:18;;;;;;;;;;;21.20;99.90;;;;;;6314963;28;19992;-69
2021/08/06 15:23:20;;;;;;;;;;;21.20;99.90;;;;;;6312739;28;19979;-69
2021/08/06 15:26:22;;;;;;;;;;;21.20;99.90;;;;;;6299105;28;19984;-69
2021/08/06 15:29:24;;;;;;;;;;;21.20;99.90;;;;;;6315388;28;19973;-69
2021/08/06 15:32:25;;;;;;;;;;;21.40;99.90;;;;;;6315177;28;19976;-69
2021/08/06 15:35:27;;;;;;;;;;;21.40;99.90;;;;;;6313145;28;20439;-69
2021/08/06 15:38:28;;;;;;;;;;;21.60;99.90;;;;;;6298725;28;19980;-68
2021/08/06 15:41:30;;;;;;;;;;;21.70;99.90;;;;;;6296347;28;19991;-68
2021/08/06 15:44:33;;;;;;;;;;;21.60;99.90;;;;;;6313816;28;20035;-68
2021/08/06 15:47:36;;;;;;;;;;;21.60;99.90;;;;;;6318967;28;19975;-69
2021/08/06 15:50:38;;;;;;;;;;;21.70;99.90;;;;;;6302052;28;20442;-69
2021/08/06 15:53:40;;;;;;;;;;;21.80;99.90;;;;;;6319333;28;20331;-69
2021/08/06 15:56:41;;;;;;;;;;;21.90;99.90;;;;;;6318901;28;20312;-69
2021/08/06 15:59:43;;;;;;;;;;;21.80;99.90;;;;;;6319702;28;19972;-69
2021/08/06 16:02:45;;;;;;;;;;;21.70;99.90;;;;;;6319947;28;20074;-69
2021/08/06 16:05:47;;;;;;;;;;;21.60;99.90;;;;;;6301678;28;19994;-69
2021/08/06 16:08:49;;;;;;;;;;;21.50;99.90;;;;;;6318635;28;19990;-69
2021/08/06 16:11:50;;;;;;;;;;;21.40;99.90;;;;;;6319890;28;19976;-69
2021/08/06 16:14:52;;;;;;;;;;;21.30;99.90;;;;;;6316303;28;19976;-69
2021/08/06 16:17:54;;;;;;;;;;;21.30;99.90;;;;;;6317815;28;19998;-69
2021/08/06 16:20:56;;;;;;;;;;;21.40;99.90;;;;;;6303026;28;20458;-70
2021/08/06 16:23:57;;;;;;;;;;;21.70;99.90;;;;;;6317291;28;19972;-69
2021/08/06 16:26:59;;;;;;;;;;;21.80;99.90;;;;;;6318994;28;19977;-69
2021/08/06 16:30:01;;;;;;;;;;;21.80;99.90;;;;;;6318704;28;19979;-69
2021/08/06 16:33:03;;;;;;;;;;;21.70;99.90;;;;;;6317821;28;20448;-68
2021/08/06 16:36:04;;;;;;;;;;;21.80;99.90;;;;;;6318915;28;19960;-69
2021/08/06 16:39:06;;;;;;;;;;;22.10;99.90;;;;;;6318576;28;19980;-69
2021/08/06 16:42:08;;;;;;;;;;;22.30;99.90;;;;;;6318783;28;19995;-69
2021/08/06 16:45:10;;;;;;;;;;;22.50;99.90;;;;;;6316976;28;20490;-66
2021/08/06 16:48:11;;;;;;;;;;;22.50;99.90;;;;;;6318657;28;20319;-66
2021/08/06 16:51:13;;;;;;;;;;;22.50;99.90;;;;;;6320019;28;19976;-67
2021/08/06 16:54:15;;;;;;;;;;;22.60;99.90;;;;;;6315901;28;19976;-67
2021/08/06 16:57:17;;;;;;;;;;;22.80;99.90;;;;;;6299362;28;20363;-66
2021/08/06 17:00:19;;;;;;;;;;;22.90;99.90;;;;;;6317908;28;19972;-66
2021/08/06 17:03:20;;;;;;;;;;;23.00;99.90;;;;;;6298220;28;20364;-67
2021/08/06 17:06:22;;;;;;;;;;;22.80;99.90;;;;;;6299505;28;20183;-66
2021/08/06 17:09:27;;;;;;;;;;;22.50;99.90;;;;;;6318584;28;20399;-67
2021/08/06 17:12:30;;;;;;;;;;;22.40;99.90;;;;;;6317379;28;19988;-67
2021/08/06 17:15:32;;;;;;;;;;;22.40;99.90;;;;;;6297099;28;20058;-69
2021/08/06 17:18:33;;;;;;;;;;;22.30;99.90;;;;;;6317912;28;19991;-69
2021/08/06 17:21:36;;;;;;;;;;;22.20;99.90;;;;;;6319034;28;19992;-68
2021/08/06 17:24:37;;;;;;;;;;;22.00;99.90;;;;;;6315953;28;19976;-69
2021/08/06 17:27:39;;;;;;;;;;;21.90;99.90;;;;;;6317731;28;20312;-69
2021/08/06 17:30:41;;;;;;;;;;;21.80;99.90;;;;;;6317109;28;19972;-69
2021/08/06 17:33:43;;;;;;;;;;;21.80;99.90;;;;;;6316282;28;20026;-69
2021/08/06 17:36:46;;;;;;;;;;;21.70;99.90;;;;;;6317384;28;20029;-69
2021/08/06 17:39:48;;;;;;;;;;;21.60;99.90;;;;;;6297923;28;20018;-69
2021/08/06 17:42:49;;;;;;;;;;;21.60;99.90;;;;;;6298329;28;20054;-69